sensor_id;sensor_type;location;lat;lon;timestamp;temperature;humidity
14993;DHT22;7592;51.088;13.732;2023-10-31T00:03:43;15.40;99.90
14993;DHT22;7592;51.088;13.732;2023-10-31T00:08:36;15.40;99.90
14993;DHT22;7592;51.088;13.732;2023-10-31T00:13:28;15.30;99.90
14993;DHT22;7592;51.088;13.732;2023-10-31T00:18:20;15.40;99.90
14993;DHT22;7592;51.088;13.732;2023-10-31T00:23:14;15.30;99.90
14993;DHT22;7592;51.088;13.732;2023-10-31T00:28:07;15.30;99.90
14993;DHT22;7592;51.088;13.732;2023-10-31T00:32:59;15.10;99.90
14993;DHT22;7592;51.088;13.732;2023-10-31T00:37:51;15.10;99.90
14993;DHT22;7592;51.088;13.732;2023-10-31T00:42:43;15.00;99.90
14993;DHT22;7592;51.088;13.732;2023-10-31T00:47:38;14.90;99.90
14993;DHT22;7592;51.088;13.732;2023-10-31T00:52:30;15.00;99.90
14993;DHT22;7592;51.088;13.732;2023-10-31T00:57:22;15.10;99.90
14993;DHT22;7592;51.088;13.732;2023-10-31T01:02:15;15.10;99.90
14993;DHT22;7592;51.088;13.732;2023-10-31T01:07:07;15.00;99.90
14993;DHT22;7592;51.088;13.732;2023-10-31T01:12:04;14.90;99.90
14993;DHT22;7592;51.088;13.732;2023-10-31T01:17:05;14.90;99.90
14993;DHT22;7592;51.088;13.732;2023-10-31T01:21:58;14.90;99.90
14993;DHT22;7592;51.088;13.732;2023-10-31T01:26:51;14.90;99.90
14993;DHT22;7592;51.088;13.732;2023-10-31T01:31:43;14.90;99.90
14993;DHT22;7592;51.088;13.732;2023-10-31T01:36:50;14.90;99.90
14993;DHT22;7592;51.088;13.732;2023-10-31T01:41:43;15.00;99.90
14993;DHT22;7592;51.088;13.732;2023-10-31T01:46:35;15.00;99.90
14993;DHT22;7592;51.088;13.732;2023-10-31T01:51:28;14.90;99.90
14993;DHT22;7592;51.088;13.732;2023-10-31T01:56:20;14.80;99.90
14993;DHT22;7592;51.088;13.732;2023-10-31T02:01:13;14.70;99.90
14993;DHT22;7592;51.088;13.732;2023-10-31T02:06:05;14.70;99.90
14993;DHT22;7592;51.088;13.732;2023-10-31T02:10:58;14.70;99.90
14993;DHT22;7592;51.088;13.732;2023-10-31T02:15:50;14.70;99.90
14993;DHT22;7592;51.088;13.732;2023-10-31T02:20:42;14.70;99.90
14993;DHT22;7592;51.088;13.732;2023-10-31T02:25:35;14.80;99.90
14993;DHT22;7592;51.088;13.732;2023-10-31T02:30:28;14.90;99.90
14993;DHT22;7592;51.088;13.732;2023-10-31T02:35:20;15.00;99.90
14993;DHT22;7592;51.088;13.732;2023-10-31T02:40:13;14.90;99.90
14993;DHT22;7592;51.088;13.732;2023-10-31T02:45:06;14.80;99.90
14993;DHT22;7592;51.088;13.732;2023-10-31T02:49:58;14.80;99.90
14993;DHT22;7592;51.088;13.732;2023-10-31T02:54:50;14.80;99.90
14993;DHT22;7592;51.088;13.732;2023-10-31T02:59:43;14.70;99.90
14993;DHT22;7592;51.088;13.732;2023-10-31T03:04:35;14.70;99.90
14993;DHT22;7592;51.088;13.732;2023-10-31T03:09:27;14.60;99.90
14993;DHT22;7592;51.088;13.732;2023-10-31T03:14:19;14.60;99.90
14993;DHT22;7592;51.088;13.732;2023-10-31T03:19:11;14.60;99.90
14993;DHT22;7592;51.088;13.732;2023-10-31T03:24:04;14.50;99.90
14993;DHT22;7592;51.088;13.732;2023-10-31T03:28:56;14.50;99.90
14993;DHT22;7592;51.088;13.732;2023-10-31T03:33:51;14.40;99.90
14993;DHT22;7592;51.088;13.732;2023-10-31T03:38:43;14.30;99.90
14993;DHT22;7592;51.088;13.732;2023-10-31T03:43:35;14.30;99.90
14993;DHT22;7592;51.088;13.732;2023-10-31T03:48:28;14.30;99.90
14993;DHT22;7592;51.088;13.732;2023-10-31T03:53:20;14.30;99.90
14993;DHT22;7592;51.088;13.732;2023-10-31T03:58:12;14.30;99.90
14993;DHT22;7592;51.088;13.732;2023-10-31T04:03:05;14.30;99.90
14993;DHT22;7592;51.088;13.732;2023-10-31T04:07:57;14.20;99.90
14993;DHT22;7592;51.088;13.732;2023-10-31T04:12:49;14.20;99.90
14993;DHT22;7592;51.088;13.732;2023-10-31T04:17:41;14.20;99.90
14993;DHT22;7592;51.088;13.732;2023-10-31T04:22:34;14.20;99.90
14993;DHT22;7592;51.088;13.732;2023-10-31T04:27:26;14.20;99.90
14993;DHT22;7592;51.088;13.732;2023-10-31T04:32:18;14.20;99.90
14993;DHT22;7592;51.088;13.732;2023-10-31T04:37:10;14.20;99.90
14993;DHT22;7592;51.088;13.732;2023-10-31T04:42:02;14.20;99.90
14993;DHT22;7592;51.088;13.732;2023-10-31T04:46:55;14.20;99.90
14993;DHT22;7592;51.088;13.732;2023-10-31T04:51:48;14.30;99.90
14993;DHT22;7592;51.088;13.732;2023-10-31T04:56:40;14.20;99.90
14993;DHT22;7592;51.088;13.732;2023-10-31T05:01:32;14.10;99.90
14993;DHT22;7592;51.088;13.732;2023-10-31T05:06:24;14.10;99.90
14993;DHT22;7592;51.088;13.732;2023-10-31T05:11:17;14.00;99.90
14993;DHT22;7592;51.088;13.732;2023-10-31T05:16:12;14.10;99.90
14993;DHT22;7592;51.088;13.732;2023-10-31T05:21:05;14.00;99.90
14993;DHT22;7592;51.088;13.732;2023-10-31T05:25:57;14.00;99.90
14993;DHT22;7592;51.088;13.732;2023-10-31T05:30:49;14.10;99.90
14993;DHT22;7592;51.088;13.732;2023-10-31T05:35:42;14.00;99.90
14993;DHT22;7592;51.088;13.732;2023-10-31T05:40:34;14.10;99.90
14993;DHT22;7592;51.088;13.732;2023-10-31T05:45:30;14.10;99.90
14993;DHT22;7592;51.088;13.732;2023-10-31T05:50:22;14.10;99.90
14993;DHT22;7592;51.088;13.732;2023-10-31T05:55:14;14.00;99.90
14993;DHT22;7592;51.088;13.732;2023-10-31T06:00:07;14.00;99.90
14993;DHT22;7592;51.088;13.732;2023-10-31T06:05:03;14.10;99.90
14993;DHT22;7592;51.088;13.732;2023-10-31T06:09:56;14.10;99.90
14993;DHT22;7592;51.088;13.732;2023-10-31T06:14:48;14.10;99.90
14993;DHT22;7592;51.088;13.732;2023-10-31T06:19:40;14.20;99.90
14993;DHT22;7592;51.088;13.732;2023-10-31T06:24:37;14.30;99.90
14993;DHT22;7592;51.088;13.732;2023-10-31T06:29:29;14.30;99.90
14993;DHT22;7592;51.088;13.732;2023-10-31T06:34:42;14.20;99.90
14993;DHT22;7592;51.088;13.732;2023-10-31T06:39:34;14.20;99.90
14993;DHT22;7592;51.088;13.732;2023-10-31T06:44:26;14.20;99.90
14993;DHT22;7592;51.088;13.732;2023-10-31T06:49:21;14.20;99.90
14993;DHT22;7592;51.088;13.732;2023-10-31T06:54:14;14.20;99.90
14993;DHT22;7592;51.088;13.732;2023-10-31T06:59:06;14.20;99.90
14993;DHT22;7592;51.088;13.732;2023-10-31T07:04:00;14.10;99.90
14993;DHT22;7592;51.088;13.732;2023-10-31T07:08:53;14.20;99.90
14993;DHT22;7592;51.088;13.732;2023-10-31T07:13:45;14.20;99.90
14993;DHT22;7592;51.088;13.732;2023-10-31T07:18:37;14.30;99.90
14993;DHT22;7592;51.088;13.732;2023-10-31T07:23:29;14.30;99.90
14993;DHT22;7592;51.088;13.732;2023-10-31T07:28:21;14.30;99.90
14993;DHT22;7592;51.088;13.732;2023-10-31T07:33:14;14.40;99.90
14993;DHT22;7592;51.088;13.732;2023-10-31T07:38:06;14.50;99.90
14993;DHT22;7592;51.088;13.732;2023-10-31T07:42:59;14.50;99.90
14993;DHT22;7592;51.088;13.732;2023-10-31T07:47:51;14.70;99.90
14993;DHT22;7592;51.088;13.732;2023-10-31T07:52:44;14.80;99.90
14993;DHT22;7592;51.088;13.732;2023-10-31T07:57:38;15.00;99.90
14993;DHT22;7592;51.088;13.732;2023-10-31T08:02:30;15.10;99.90
14993;DHT22;7592;51.088;13.732;2023-10-31T08:07:25;15.30;99.90
14993;DHT22;7592;51.088;13.732;2023-10-31T08:12:22;15.30;99.90
14993;DHT22;7592;51.088;13.732;2023-10-31T08:17:15;15.20;99.90
14993;DHT22;7592;51.088;13.732;2023-10-31T08:22:08;15.10;99.90
14993;DHT22;7592;51.088;13.732;2023-10-31T08:27:00;15.10;99.90
14993;DHT22;7592;51.088;13.732;2023-10-31T08:31:53;15.10;99.90
14993;DHT22;7592;51.088;13.732;2023-10-31T08:36:45;15.40;99.90
14993;DHT22;7592;51.088;13.732;2023-10-31T08:41:37;15.70;99.90
14993;DHT22;7592;51.088;13.732;2023-10-31T08:46:31;16.10;99.90
14993;DHT22;7592;51.088;13.732;2023-10-31T08:51:23;16.50;99.90
14993;DHT22;7592;51.088;13.732;2023-10-31T08:56:15;16.70;99.90
14993;DHT22;7592;51.088;13.732;2023-10-31T09:01:07;16.90;99.90
14993;DHT22;7592;51.088;13.732;2023-10-31T09:06:00;16.80;99.90
14993;DHT22;7592;51.088;13.732;2023-10-31T09:10:52;16.80;99.90
14993;DHT22;7592;51.088;13.732;2023-10-31T09:15:44;16.90;99.90
14993;DHT22;7592;51.088;13.732;2023-10-31T09:20:38;17.50;99.90
14993;DHT22;7592;51.088;13.732;2023-10-31T09:25:30;18.30;99.90
14993;DHT22;7592;51.088;13.732;2023-10-31T09:30:22;19.20;99.90
14993;DHT22;7592;51.088;13.732;2023-10-31T09:35:14;19.40;99.90
14993;DHT22;7592;51.088;13.732;2023-10-31T09:40:07;18.60;99.90
14993;DHT22;7592;51.088;13.732;2023-10-31T09:44:59;17.60;99.90
14993;DHT22;7592;51.088;13.732;2023-10-31T09:49:51;17.20;99.90
14993;DHT22;7592;51.088;13.732;2023-10-31T09:54:45;16.80;99.90
14993;DHT22;7592;51.088;13.732;2023-10-31T09:59:37;16.50;99.90
14993;DHT22;7592;51.088;13.732;2023-10-31T10:04:30;17.00;99.90
14993;DHT22;7592;51.088;13.732;2023-10-31T10:09:22;17.10;99.90
14993;DHT22;7592;51.088;13.732;2023-10-31T10:14:16;17.20;99.90
14993;DHT22;7592;51.088;13.732;2023-10-31T10:19:16;17.40;99.90
14993;DHT22;7592;51.088;13.732;2023-10-31T10:24:09;17.50;99.90
14993;DHT22;7592;51.088;13.732;2023-10-31T10:29:01;17.70;99.90
14993;DHT22;7592;51.088;13.732;2023-10-31T10:33:53;17.30;99.90
14993;DHT22;7592;51.088;13.732;2023-10-31T10:38:48;17.20;99.90
14993;DHT22;7592;51.088;13.732;2023-10-31T10:43:42;17.30;99.90
14993;DHT22;7592;51.088;13.732;2023-10-31T10:48:36;17.60;99.90
14993;DHT22;7592;51.088;13.732;2023-10-31T10:53:30;17.30;99.90
14993;DHT22;7592;51.088;13.732;2023-10-31T10:58:39;17.20;99.90
14993;DHT22;7592;51.088;13.732;2023-10-31T11:03:34;17.10;99.90
14993;DHT22;7592;51.088;13.732;2023-10-31T11:08:27;16.80;99.90
14993;DHT22;7592;51.088;13.732;2023-10-31T11:13:20;16.50;99.90
14993;DHT22;7592;51.088;13.732;2023-10-31T11:18:13;16.30;99.90
14993;DHT22;7592;51.088;13.732;2023-10-31T11:23:06;16.20;99.90
14993;DHT22;7592;51.088;13.732;2023-10-31T11:28:15;16.70;99.90
14993;DHT22;7592;51.088;13.732;2023-10-31T11:33:15;19.70;99.90
14993;DHT22;7592;51.088;13.732;2023-10-31T11:38:10;19.50;99.90
14993;DHT22;7592;51.088;13.732;2023-10-31T11:43:05;18.80;99.90
14993;DHT22;7592;51.088;13.732;2023-10-31T11:47:58;19.20;99.90
14993;DHT22;7592;51.088;13.732;2023-10-31T11:53:19;19.20;99.90
14993;DHT22;7592;51.088;13.732;2023-10-31T12:03:10;17.40;99.90
14993;DHT22;7592;51.088;13.732;2023-10-31T12:08:02;16.90;99.90
14993;DHT22;7592;51.088;13.732;2023-10-31T12:12:54;16.60;99.90
14993;DHT22;7592;51.088;13.732;2023-10-31T12:17:46;16.40;99.90
14993;DHT22;7592;51.088;13.732;2023-10-31T12:22:39;16.30;99.90
14993;DHT22;7592;51.088;13.732;2023-10-31T12:27:50;16.20;99.90
14993;DHT22;7592;51.088;13.732;2023-10-31T12:32:44;16.10;99.90
14993;DHT22;7592;51.088;13.732;2023-10-31T12:37:37;16.10;99.90
14993;DHT22;7592;51.088;13.732;2023-10-31T12:42:31;16.10;99.90
14993;DHT22;7592;51.088;13.732;2023-10-31T12:47:25;16.10;99.90
14993;DHT22;7592;51.088;13.732;2023-10-31T12:52:17;16.00;99.90
14993;DHT22;7592;51.088;13.732;2023-10-31T12:57:09;16.00;99.90
14993;DHT22;7592;51.088;13.732;2023-10-31T13:02:04;15.80;99.90
14993;DHT22;7592;51.088;13.732;2023-10-31T13:06:59;15.60;99.90
14993;DHT22;7592;51.088;13.732;2023-10-31T13:11:52;15.50;99.90
14993;DHT22;7592;51.088;13.732;2023-10-31T13:16:44;15.20;99.90
14993;DHT22;7592;51.088;13.732;2023-10-31T13:21:36;15.00;99.90
14993;DHT22;7592;51.088;13.732;2023-10-31T13:26:28;14.90;99.90
14993;DHT22;7592;51.088;13.732;2023-10-31T13:31:20;15.00;99.90
14993;DHT22;7592;51.088;13.732;2023-10-31T13:36:12;15.00;99.90
14993;DHT22;7592;51.088;13.732;2023-10-31T13:41:04;15.20;99.90
14993;DHT22;7592;51.088;13.732;2023-10-31T13:45:56;15.20;99.90
14993;DHT22;7592;51.088;13.732;2023-10-31T13:50:49;15.30;99.90
14993;DHT22;7592;51.088;13.732;2023-10-31T13:55:42;15.30;99.90
14993;DHT22;7592;51.088;13.732;2023-10-31T14:00:35;15.20;99.90
14993;DHT22;7592;51.088;13.732;2023-10-31T14:05:27;15.10;99.90
14993;DHT22;7592;51.088;13.732;2023-10-31T14:10:20;15.10;99.90
14993;DHT22;7592;51.088;13.732;2023-10-31T14:15:12;15.00;99.90
14993;DHT22;7592;51.088;13.732;2023-10-31T14:20:04;15.00;99.90
14993;DHT22;7592;51.088;13.732;2023-10-31T14:24:57;15.00;99.90
14993;DHT22;7592;51.088;13.732;2023-10-31T14:29:49;15.00;99.90
14993;DHT22;7592;51.088;13.732;2023-10-31T14:34:41;14.90;99.90
14993;DHT22;7592;51.088;13.732;2023-10-31T14:39:34;14.70;99.90
14993;DHT22;7592;51.088;13.732;2023-10-31T14:44:26;14.60;99.90
14993;DHT22;7592;51.088;13.732;2023-10-31T14:49:18;14.50;99.90
14993;DHT22;7592;51.088;13.732;2023-10-31T14:54:10;14.40;99.90
14993;DHT22;7592;51.088;13.732;2023-10-31T14:59:02;14.40;99.90
14993;DHT22;7592;51.088;13.732;2023-10-31T15:03:55;14.30;99.90
14993;DHT22;7592;51.088;13.732;2023-10-31T15:08:48;14.30;99.90
14993;DHT22;7592;51.088;13.732;2023-10-31T15:13:40;14.30;99.90
14993;DHT22;7592;51.088;13.732;2023-10-31T15:18:32;14.30;99.90
14993;DHT22;7592;51.088;13.732;2023-10-31T15:23:24;14.20;99.90
14993;DHT22;7592;51.088;13.732;2023-10-31T15:28:18;14.20;99.90
14993;DHT22;7592;51.088;13.732;2023-10-31T15:33:11;14.20;99.90
14993;DHT22;7592;51.088;13.732;2023-10-31T15:38:03;14.10;99.90
14993;DHT22;7592;51.088;13.732;2023-10-31T15:42:55;14.10;99.90
14993;DHT22;7592;51.088;13.732;2023-10-31T15:47:47;14.10;99.90
14993;DHT22;7592;51.088;13.732;2023-10-31T15:52:39;14.00;99.90
14993;DHT22;7592;51.088;13.732;2023-10-31T15:57:32;14.00;99.90
14993;DHT22;7592;51.088;13.732;2023-10-31T16:02:24;13.90;99.90
14993;DHT22;7592;51.088;13.732;2023-10-31T16:07:16;13.90;99.90
14993;DHT22;7592;51.088;13.732;2023-10-31T16:12:09;14.00;99.90
14993;DHT22;7592;51.088;13.732;2023-10-31T16:17:01;14.00;99.90
14993;DHT22;7592;51.088;13.732;2023-10-31T16:21:53;14.00;99.90
14993;DHT22;7592;51.088;13.732;2023-10-31T16:26:45;14.00;99.90
14993;DHT22;7592;51.088;13.732;2023-10-31T16:31:37;13.90;99.90
14993;DHT22;7592;51.088;13.732;2023-10-31T16:36:29;13.90;99.90
14993;DHT22;7592;51.088;13.732;2023-10-31T16:41:21;13.90;99.90
14993;DHT22;7592;51.088;13.732;2023-10-31T16:46:13;13.90;99.90
14993;DHT22;7592;51.088;13.732;2023-10-31T16:51:17;13.80;99.90
14993;DHT22;7592;51.088;13.732;2023-10-31T16:56:09;13.80;99.90
14993;DHT22;7592;51.088;13.732;2023-10-31T17:01:01;13.80;99.90
14993;DHT22;7592;51.088;13.732;2023-10-31T17:05:54;13.80;99.90
14993;DHT22;7592;51.088;13.732;2023-10-31T17:10:46;13.80;99.90
14993;DHT22;7592;51.088;13.732;2023-10-31T17:15:38;13.70;99.90
14993;DHT22;7592;51.088;13.732;2023-10-31T17:20:30;13.70;99.90
14993;DHT22;7592;51.088;13.732;2023-10-31T17:25:22;13.70;99.90
14993;DHT22;7592;51.088;13.732;2023-10-31T17:30:15;13.70;99.90
14993;DHT22;7592;51.088;13.732;2023-10-31T17:35:07;13.60;99.90
14993;DHT22;7592;51.088;13.732;2023-10-31T17:40:00;13.60;99.90
14993;DHT22;7592;51.088;13.732;2023-10-31T17:44:53;13.60;99.90
14993;DHT22;7592;51.088;13.732;2023-10-31T17:49:45;13.50;99.90
14993;DHT22;7592;51.088;13.732;2023-10-31T17:54:37;13.50;99.90
14993;DHT22;7592;51.088;13.732;2023-10-31T17:59:33;13.40;99.90
14993;DHT22;7592;51.088;13.732;2023-10-31T18:04:25;13.40;99.90
14993;DHT22;7592;51.088;13.732;2023-10-31T18:09:18;13.40;99.90
14993;DHT22;7592;51.088;13.732;2023-10-31T18:14:10;13.30;99.90
14993;DHT22;7592;51.088;13.732;2023-10-31T18:19:03;13.40;99.90
14993;DHT22;7592;51.088;13.732;2023-10-31T18:23:55;13.40;99.90
14993;DHT22;7592;51.088;13.732;2023-10-31T18:28:48;13.40;99.90
14993;DHT22;7592;51.088;13.732;2023-10-31T18:33:42;13.30;99.90
14993;DHT22;7592;51.088;13.732;2023-10-31T18:38:34;13.40;99.90
14993;DHT22;7592;51.088;13.732;2023-10-31T18:43:26;13.30;99.90
14993;DHT22;7592;51.088;13.732;2023-10-31T18:48:18;13.40;99.90
14993;DHT22;7592;51.088;13.732;2023-10-31T18:53:11;13.40;99.90
14993;DHT22;7592;51.088;13.732;2023-10-31T18:58:04;13.40;99.90
14993;DHT22;7592;51.088;13.732;2023-10-31T19:02:56;13.30;99.90
14993;DHT22;7592;51.088;13.732;2023-10-31T19:07:49;13.30;99.90
14993;DHT22;7592;51.088;13.732;2023-10-31T19:12:41;13.40;99.90
14993;DHT22;7592;51.088;13.732;2023-10-31T19:17:33;13.30;99.90
14993;DHT22;7592;51.088;13.732;2023-10-31T19:22:25;13.30;99.90
14993;DHT22;7592;51.088;13.732;2023-10-31T19:27:18;13.30;99.90
14993;DHT22;7592;51.088;13.732;2023-10-31T19:32:10;13.30;99.90
14993;DHT22;7592;51.088;13.732;2023-10-31T19:37:03;13.30;99.90
14993;DHT22;7592;51.088;13.732;2023-10-31T19:41:55;13.20;99.90
14993;DHT22;7592;51.088;13.732;2023-10-31T19:46:49;13.30;99.90
14993;DHT22;7592;51.088;13.732;2023-10-31T19:51:41;13.30;99.90
14993;DHT22;7592;51.088;13.732;2023-10-31T19:56:36;13.20;99.90
14993;DHT22;7592;51.088;13.732;2023-10-31T20:01:29;13.20;99.90
14993;DHT22;7592;51.088;13.732;2023-10-31T20:06:21;13.20;99.90
14993;DHT22;7592;51.088;13.732;2023-10-31T20:11:13;13.20;99.90
14993;DHT22;7592;51.088;13.732;2023-10-31T20:16:07;13.20;99.90
14993;DHT22;7592;51.088;13.732;2023-10-31T20:21:00;13.20;99.90
14993;DHT22;7592;51.088;13.732;2023-10-31T20:25:52;13.20;99.90
14993;DHT22;7592;51.088;13.732;2023-10-31T20:30:44;13.30;99.90
14993;DHT22;7592;51.088;13.732;2023-10-31T20:35:37;13.20;99.90
14993;DHT22;7592;51.088;13.732;2023-10-31T20:40:29;13.10;99.90
14993;DHT22;7592;51.088;13.732;2023-10-31T20:45:24;13.00;99.90
14993;DHT22;7592;51.088;13.732;2023-10-31T20:50:16;12.90;99.90
14993;DHT22;7592;51.088;13.732;2023-10-31T20:55:08;13.00;99.90
14993;DHT22;7592;51.088;13.732;2023-10-31T21:00:00;13.00;99.90
14993;DHT22;7592;51.088;13.732;2023-10-31T21:04:54;13.00;99.90
14993;DHT22;7592;51.088;13.732;2023-10-31T21:09:47;13.00;99.90
14993;DHT22;7592;51.088;13.732;2023-10-31T21:14:40;13.00;99.90
14993;DHT22;7592;51.088;13.732;2023-10-31T21:19:32;13.00;99.90
14993;DHT22;7592;51.088;13.732;2023-10-31T21:24:27;13.00;99.90
14993;DHT22;7592;51.088;13.732;2023-10-31T21:29:19;13.00;99.90
14993;DHT22;7592;51.088;13.732;2023-10-31T21:34:12;13.00;99.90
14993;DHT22;7592;51.088;13.732;2023-10-31T21:39:07;13.00;99.90
14993;DHT22;7592;51.088;13.732;2023-10-31T21:43:59;13.00;99.90
14993;DHT22;7592;51.088;13.732;2023-10-31T21:48:51;12.90;99.90
14993;DHT22;7592;51.088;13.732;2023-10-31T21:53:43;13.00;99.90
14993;DHT22;7592;51.088;13.732;2023-10-31T21:58:35;13.00;99.90
14993;DHT22;7592;51.088;13.732;2023-10-31T22:03:27;12.90;99.90
14993;DHT22;7592;51.088;13.732;2023-10-31T22:08:20;12.90;99.90
14993;DHT22;7592;51.088;13.732;2023-10-31T22:13:13;12.90;99.90
14993;DHT22;7592;51.088;13.732;2023-10-31T22:18:05;12.80;99.90
14993;DHT22;7592;51.088;13.732;2023-10-31T22:22:57;12.80;99.90
14993;DHT22;7592;51.088;13.732;2023-10-31T22:27:50;12.70;99.90
14993;DHT22;7592;51.088;13.732;2023-10-31T22:32:42;12.60;99.90
14993;DHT22;7592;51.088;13.732;2023-10-31T22:37:34;12.50;99.90
14993;DHT22;7592;51.088;13.732;2023-10-31T22:42:27;12.30;99.90
14993;DHT22;7592;51.088;13.732;2023-10-31T22:47:21;12.20;99.90
14993;DHT22;7592;51.088;13.732;2023-10-31T22:52:14;12.20;99.90
14993;DHT22;7592;51.088;13.732;2023-10-31T22:57:06;12.10;99.90
14993;DHT22;7592;51.088;13.732;2023-10-31T23:01:58;12.00;99.90
14993;DHT22;7592;51.088;13.732;2023-10-31T23:06:50;11.90;99.90
14993;DHT22;7592;51.088;13.732;2023-10-31T23:11:46;11.80;99.90
14993;DHT22;7592;51.088;13.732;2023-10-31T23:16:39;11.70;99.90
14993;DHT22;7592;51.088;13.732;2023-10-31T23:21:31;11.60;99.90
14993;DHT22;7592;51.088;13.732;2023-10-31T23:26:23;11.40;99.90
14993;DHT22;7592;51.088;13.732;2023-10-31T23:31:15;11.40;99.90
14993;DHT22;7592;51.088;13.732;2023-10-31T23:36:08;11.40;99.90
14993;DHT22;7592;51.088;13.732;2023-10-31T23:41:00;11.40;99.90
14993;DHT22;7592;51.088;13.732;2023-10-31T23:45:52;11.30;99.90
14993;DHT22;7592;51.088;13.732;2023-10-31T23:50:44;11.30;99.90
14993;DHT22;7592;51.088;13.732;2023-10-31T23:55:36;11.20;99.90
